SWR54 LSZH-KLAX
Flight info
| Callsign | SWR54 |
|---|---|
| Flight time | N/A |
| Altitude | 32000 |
| Route | VEBIT T10 TORPA DCT REKLA DCT RLP DCT ROTSI DCT KOTUN DCT AMAXA DCT VESAN DCT RATUK DCT SOVAT L613 SANDY DCT OKSAW DCT TEWXI DCT LIPGO DCT RESNO/M083F340 NATA JANJO/N0474F340 DCT DENSO/N0474F360 DCT AGLOL DCT MERNU DCT XEXUL DCT BLUOX DCT RAP/N0478F380 J158 DDY J107 NORRA J100 LAS Q70 HAILO DCT KOPLE BOGET2 |
| Aircraft | B77W/H-SDE1E2E3FGHIJ2J3J4J5M1RWXY/LB1D1 |
Departure
| Time | 2026-04-26 11:08 |
|---|---|
| Airport | Zürich Airport (LSZH) |
Arrival
| Time | N/A |
|---|---|
| Airport | Los Angeles International Airport (KLAX) |
| Time | Latitude | Longitude | Altitude | Speed | Heading |
|---|---|---|---|---|---|
| 2026-04-26 10:29 | 47.46186 | 8.55491 | 1391 ft | 0 kts | 186° |
| 2026-04-26 10:54 | 47.46199 | 8.55497 | 1391 ft | 2 kts | 203° |
| 2026-04-26 10:54 | 47.46212 | 8.55506 | 1391 ft | 2 kts | 210° |
| 2026-04-26 10:55 | 47.46225 | 8.55518 | 1391 ft | 2 kts | 224° |
| 2026-04-26 10:55 | 47.46234 | 8.55535 | 1391 ft | 2 kts | 237° |
| 2026-04-26 10:55 | 47.46242 | 8.55554 | 1391 ft | 2 kts | 249° |
| 2026-04-26 10:55 | 47.46246 | 8.55575 | 1391 ft | 2 kts | 261° |
| 2026-04-26 10:56 | 47.46247 | 8.55596 | 1391 ft | 2 kts | 274° |
| 2026-04-26 10:56 | 47.46245 | 8.55618 | 1391 ft | 2 kts | 279° |
| 2026-04-26 10:56 | 47.46243 | 8.55639 | 1391 ft | 2 kts | 277° |
| 2026-04-26 10:56 | 47.46241 | 8.55659 | 1391 ft | 0 kts | 276° |
| 2026-04-26 10:58 | 47.46241 | 8.55658 | 1391 ft | 0 kts | 276° |
| 2026-04-26 10:59 | 47.46243 | 8.55633 | 1391 ft | 4 kts | 276° |
| 2026-04-26 10:59 | 47.46249 | 8.55559 | 1391 ft | 9 kts | 276° |
| 2026-04-26 10:59 | 47.46256 | 8.55453 | 1391 ft | 12 kts | 276° |
| 2026-04-26 10:59 | 47.46266 | 8.55322 | 1391 ft | 15 kts | 276° |
| 2026-04-26 11:00 | 47.46278 | 8.55142 | 1391 ft | 18 kts | 276° |
| 2026-04-26 11:00 | 47.46291 | 8.54977 | 1390 ft | 19 kts | 277° |
| 2026-04-26 11:00 | 47.46303 | 8.54804 | 1389 ft | 12 kts | 277° |
| 2026-04-26 11:00 | 47.46354 | 8.54711 | 1389 ft | 10 kts | 332° |
| 2026-04-26 11:01 | 47.46406 | 8.54673 | 1389 ft | 8 kts | 335° |
| 2026-04-26 11:01 | 47.46477 | 8.54625 | 1388 ft | 13 kts | 335° |
| 2026-04-26 11:01 | 47.46579 | 8.54555 | 1388 ft | 17 kts | 335° |
| 2026-04-26 11:01 | 47.46682 | 8.54484 | 1387 ft | 18 kts | 335° |
| 2026-04-26 11:02 | 47.46796 | 8.54416 | 1387 ft | 16 kts | 342° |
| 2026-04-26 11:02 | 47.46888 | 8.54355 | 1387 ft | 13 kts | 335° |
| 2026-04-26 11:02 | 47.46967 | 8.54301 | 1387 ft | 12 kts | 335° |
| 2026-04-26 11:02 | 47.47043 | 8.54250 | 1387 ft | 12 kts | 336° |
| 2026-04-26 11:03 | 47.47109 | 8.54205 | 1387 ft | 12 kts | 336° |
| 2026-04-26 11:03 | 47.47183 | 8.54154 | 1387 ft | 10 kts | 335° |
| 2026-04-26 11:03 | 47.47245 | 8.54111 | 1387 ft | 9 kts | 335° |
| 2026-04-26 11:03 | 47.47298 | 8.54074 | 1387 ft | 10 kts | 335° |
| 2026-04-26 11:04 | 47.47362 | 8.54029 | 1388 ft | 10 kts | 335° |
| 2026-04-26 11:04 | 47.47429 | 8.53984 | 1389 ft | 10 kts | 335° |
| 2026-04-26 11:04 | 47.47495 | 8.53938 | 1390 ft | 10 kts | 335° |
| 2026-04-26 11:04 | 47.47561 | 8.53892 | 1392 ft | 10 kts | 331° |
| 2026-04-26 11:05 | 47.47603 | 8.53810 | 1393 ft | 10 kts | 284° |
| 2026-04-26 11:05 | 47.47590 | 8.53708 | 1394 ft | 10 kts | 242° |
| 2026-04-26 11:05 | 47.47550 | 8.53627 | 1394 ft | 9 kts | 206° |
| 2026-04-26 11:05 | 47.47513 | 8.53633 | 1394 ft | 0 kts | 154° |
| 2026-04-26 11:06 | 47.47507 | 8.53637 | 1394 ft | 3 kts | 154° |
| 2026-04-26 11:06 | 47.47437 | 8.53687 | 1392 ft | 30 kts | 155° |
| 2026-04-26 11:07 | 47.47037 | 8.53962 | 1388 ft | 94 kts | 155° |
| 2026-04-26 11:07 | 47.46255 | 8.54501 | 1389 ft | 150 kts | 155° |
| 2026-04-26 11:07 | 47.45169 | 8.55263 | 1443 ft | 192 kts | 153° |
| 2026-04-26 11:07 | 47.43936 | 8.56089 | 1992 ft | 193 kts | 152° |
| 2026-04-26 11:08 | 47.42758 | 8.57124 | 2477 ft | 204 kts | 136° |
| 2026-04-26 11:08 | 47.41985 | 8.58804 | 3017 ft | 195 kts | 102° |
| 2026-04-26 11:08 | 47.41971 | 8.60819 | 3065 ft | 211 kts | 71° |
| 2026-04-26 11:08 | 47.42768 | 8.62633 | 3452 ft | 210 kts | 38° |
| 2026-04-26 11:09 | 47.44083 | 8.63580 | 3810 ft | 217 kts | 11° |
| 2026-04-26 11:09 | 47.45504 | 8.63576 | 4138 ft | 224 kts | 347° |
| 2026-04-26 11:09 | 47.46486 | 8.63022 | 4508 ft | 223 kts | 332° |
| 2026-04-26 11:09 | 47.47625 | 8.61634 | 4952 ft | 226 kts | 310° |
| 2026-04-26 11:10 | 47.48372 | 8.59540 | 5345 ft | 232 kts | 286° |
| 2026-04-26 11:10 | 47.48477 | 8.57166 | 5756 ft | 236 kts | 261° |
| 2026-04-26 11:10 | 47.48117 | 8.55578 | 6023 ft | 238 kts | 239° |
| 2026-04-26 11:10 | 47.47242 | 8.53984 | 6366 ft | 239 kts | 223° |
| 2026-04-26 11:11 | 47.46046 | 8.52190 | 6583 ft | 253 kts | 230° |
| 2026-04-26 11:11 | 47.44961 | 8.50027 | 6740 ft | 271 kts | 238° |
| 2026-04-26 11:11 | 47.43972 | 8.47605 | 6960 ft | 283 kts | 241° |
| 2026-04-26 11:11 | 47.42988 | 8.45054 | 7446 ft | 287 kts | 241° |
| 2026-04-26 11:12 | 47.42161 | 8.42898 | 8041 ft | 285 kts | 241° |
| 2026-04-26 11:12 | 47.41174 | 8.40329 | 8613 ft | 288 kts | 241° |
| 2026-04-26 11:12 | 47.40193 | 8.37777 | 9174 ft | 289 kts | 241° |
| 2026-04-26 11:12 | 47.39195 | 8.35189 | 9724 ft | 292 kts | 241° |
| 2026-04-26 11:13 | 47.38221 | 8.32582 | 10255 ft | 293 kts | 243° |
| 2026-04-26 11:13 | 47.37367 | 8.30144 | 10539 ft | 304 kts | 243° |
| 2026-04-26 11:13 | 47.36367 | 8.27299 | 10712 ft | 320 kts | 243° |
| 2026-04-26 11:13 | 47.35307 | 8.24312 | 10920 ft | 337 kts | 243° |
| 2026-04-26 11:14 | 47.34201 | 8.21199 | 11154 ft | 352 kts | 243° |
| 2026-04-26 11:14 | 47.33048 | 8.17957 | 11429 ft | 367 kts | 243° |
| 2026-04-26 11:14 | 47.31837 | 8.14560 | 11826 ft | 378 kts | 243° |
| 2026-04-26 11:14 | 47.30615 | 8.11124 | 12451 ft | 381 kts | 243° |
| 2026-04-26 11:15 | 47.29388 | 8.07674 | 13166 ft | 384 kts | 243° |
| 2026-04-26 11:15 | 47.28270 | 8.04156 | 13822 ft | 386 kts | 251° |
| 2026-04-26 11:15 | 47.27572 | 8.00330 | 14507 ft | 388 kts | 261° |
| 2026-04-26 11:15 | 47.27369 | 7.96363 | 15189 ft | 391 kts | 272° |
| 2026-04-26 11:16 | 47.27587 | 7.92828 | 15835 ft | 392 kts | 278° |
| 2026-04-26 11:16 | 47.27965 | 7.88889 | 16553 ft | 394 kts | 278° |
| 2026-04-26 11:16 | 47.28354 | 7.84899 | 17231 ft | 397 kts | 278° |
| 2026-04-26 11:16 | 47.28746 | 7.80835 | 17907 ft | 400 kts | 278° |
| 2026-04-26 11:17 | 47.29133 | 7.76804 | 18540 ft | 404 kts | 278° |
| 2026-04-26 11:17 | 47.29521 | 7.72721 | 19172 ft | 408 kts | 278° |
| 2026-04-26 11:17 | 47.29914 | 7.68570 | 19830 ft | 411 kts | 278° |
| 2026-04-26 11:17 | 47.30317 | 7.64379 | 20484 ft | 413 kts | 280° |
| 2026-04-26 11:18 | 47.31012 | 7.60278 | 21077 ft | 417 kts | 287° |
| 2026-04-26 11:18 | 47.31891 | 7.56222 | 21639 ft | 421 kts | 288° |
| 2026-04-26 11:18 | 47.32792 | 7.52108 | 22246 ft | 424 kts | 288° |
| 2026-04-26 11:18 | 47.33695 | 7.47972 | 22823 ft | 427 kts | 287° |
| 2026-04-26 11:19 | 47.34599 | 7.43818 | 23373 ft | 430 kts | 287° |
| 2026-04-26 11:19 | 47.35512 | 7.39607 | 23891 ft | 434 kts | 287° |
| 2026-04-26 11:19 | 47.36426 | 7.35384 | 24433 ft | 437 kts | 287° |
| 2026-04-26 11:19 | 47.37352 | 7.31093 | 24960 ft | 440 kts | 287° |
| 2026-04-26 11:20 | 47.38277 | 7.26793 | 25437 ft | 443 kts | 287° |
| 2026-04-26 11:20 | 47.38894 | 7.23919 | 25751 ft | 445 kts | 287° |
| 2026-04-26 11:20 | 47.40138 | 7.18118 | 26407 ft | 449 kts | 287° |
| 2026-04-26 11:20 | 47.40979 | 7.13658 | 26871 ft | 451 kts | 282° |
| 2026-04-26 11:21 | 47.41656 | 7.09139 | 27328 ft | 454 kts | 282° |
| 2026-04-26 11:21 | 47.42234 | 7.05203 | 27712 ft | 456 kts | 282° |
| 2026-04-26 11:21 | 47.42903 | 7.00638 | 28138 ft | 459 kts | 282° |
| 2026-04-26 11:21 | 47.43579 | 6.96011 | 28593 ft | 462 kts | 282° |
| 2026-04-26 11:22 | 47.44257 | 6.91359 | 29038 ft | 464 kts | 282° |
| 2026-04-26 11:22 | 47.44939 | 6.86663 | 29478 ft | 466 kts | 282° |
| 2026-04-26 11:22 | 47.45616 | 6.81998 | 30057 ft | 465 kts | 282° |
| 2026-04-26 11:22 | 47.46291 | 6.77328 | 30780 ft | 461 kts | 282° |
| 2026-04-26 11:23 | 47.46953 | 6.72742 | 31400 ft | 458 kts | 282° |